createdAt,value
2023-01-07T00:01:45.661Z,3.70
2023-01-07T00:04:17.746Z,4.07
2023-01-07T00:06:47.264Z,5.45
2023-01-07T00:09:18.272Z,5.05
2023-01-07T00:11:48.716Z,5.20
2023-01-07T00:14:17.197Z,4.82
2023-01-07T00:16:49.010Z,4.45
2023-01-07T00:19:18.024Z,5.00
2023-01-07T00:21:46.373Z,4.28
2023-01-07T00:24:18.269Z,4.43
2023-01-07T00:26:48.180Z,6.65
2023-01-07T00:29:18.672Z,5.20
2023-01-07T00:31:47.133Z,4.80
2023-01-07T00:34:15.951Z,4.82
2023-01-07T00:36:46.631Z,4.57
2023-01-07T00:39:17.198Z,4.40
2023-01-07T00:42:07.564Z,4.97
2023-01-07T00:44:37.925Z,4.53
2023-01-07T00:47:07.356Z,4.45
2023-01-07T00:49:36.083Z,5.05
2023-01-07T00:52:04.591Z,4.70
2023-01-07T00:54:33.480Z,4.28
2023-01-07T00:57:02.444Z,4.30
2023-01-07T00:59:30.861Z,4.60
2023-01-07T01:02:01.129Z,4.78
2023-01-07T01:04:29.691Z,5.22
2023-01-07T01:06:58.840Z,4.75
2023-01-07T01:09:27.961Z,4.97
2023-01-07T01:11:57.350Z,8.57
2023-01-07T01:14:25.655Z,6.00
2023-01-07T01:16:55.448Z,5.50
2023-01-07T01:19:25.135Z,6.07
2023-01-07T01:21:54.301Z,5.23
2023-01-07T01:24:26.503Z,5.45
2023-01-07T01:26:55.988Z,5.20
2023-01-07T01:29:26.616Z,5.95
2023-01-07T01:31:57.244Z,5.00
2023-01-07T01:34:29.229Z,4.78
2023-01-07T01:36:58.321Z,4.53
2023-01-07T01:39:27.002Z,4.43
2023-01-07T01:41:56.852Z,5.25
2023-01-07T01:44:48.558Z,4.95
2023-01-07T01:47:32.738Z,4.70
2023-01-07T01:50:17.870Z,4.85
2023-01-07T01:52:51.063Z,4.97
2023-01-07T01:55:23.719Z,4.78
2023-01-07T01:57:57.854Z,4.65
2023-01-07T02:00:27.464Z,4.55
2023-01-07T02:02:59.514Z,4.55
2023-01-07T02:05:34.081Z,4.68
2023-01-07T02:08:03.042Z,4.22
2023-01-07T02:10:33.227Z,5.28
2023-01-07T02:13:20.052Z,5.78
2023-01-07T02:15:57.065Z,4.82
2023-01-07T02:18:43.286Z,5.25
2023-01-07T02:21:25.126Z,4.97
2023-01-07T02:24:37.233Z,5.13
2023-01-07T02:27:17.598Z,4.93
2023-01-07T02:30:20.753Z,5.37
2023-01-07T02:33:06.872Z,5.53
2023-01-07T02:36:02.166Z,5.73
2023-01-07T02:38:41.482Z,5.05
2023-01-07T02:41:20.750Z,5.20
2023-01-07T02:43:56.466Z,4.88
2023-01-07T02:46:31.910Z,4.93
2023-01-07T02:49:05.895Z,4.85
2023-01-07T02:51:36.740Z,4.65
2023-01-07T02:54:09.809Z,6.10
2023-01-07T02:56:55.543Z,6.47
2023-01-07T02:59:42.087Z,5.13
2023-01-07T03:02:37.926Z,5.15
2023-01-07T03:05:21.287Z,4.82
2023-01-07T03:08:09.319Z,4.65
2023-01-07T03:10:45.369Z,5.00
2023-01-07T03:13:17.932Z,5.03
2023-01-07T03:15:55.998Z,5.07
2023-01-07T03:18:28.996Z,4.80
2023-01-07T03:21:07.388Z,4.90
2023-01-07T03:23:42.786Z,4.47
2023-01-07T03:26:13.947Z,4.70
2023-01-07T03:28:44.347Z,4.55
2023-01-07T03:31:14.898Z,5.07
2023-01-07T03:33:51.607Z,5.30
2023-01-07T03:36:26.577Z,5.10
2023-01-07T03:38:57.747Z,4.75
2023-01-07T03:41:45.796Z,4.82
2023-01-07T03:44:15.026Z,4.53
2023-01-07T03:46:45.636Z,4.80
2023-01-07T03:49:15.139Z,4.68
2023-01-07T03:51:46.415Z,5.38
2023-01-07T03:54:14.985Z,5.03
2023-01-07T03:56:43.858Z,5.13
2023-01-07T03:59:12.800Z,5.18
2023-01-07T04:01:41.753Z,4.78
2023-01-07T04:04:13.703Z,5.13
2023-01-07T04:06:42.901Z,4.78
2023-01-07T04:09:15.543Z,4.70
2023-01-07T04:11:44.521Z,4.32
2023-01-07T04:14:15.015Z,4.33
2023-01-07T04:16:44.742Z,4.65
2023-01-07T04:19:14.029Z,4.25
2023-01-07T04:21:42.380Z,5.03
2023-01-07T04:24:13.051Z,4.70
2023-01-07T04:26:42.526Z,5.05
2023-01-07T04:29:12.085Z,5.00
2023-01-07T04:31:41.155Z,5.10
2023-01-07T04:34:10.801Z,5.40
2023-01-07T04:46:50.210Z,5.53
2023-01-07T05:17:37.182Z,4.90
2023-01-07T05:20:08.846Z,5.18
2023-01-07T05:22:40.408Z,5.07
2023-01-07T05:25:11.068Z,4.65
2023-01-07T05:27:39.565Z,4.90
2023-01-07T05:30:10.899Z,5.65
2023-01-07T05:32:40.865Z,4.68
2023-01-07T05:35:11.254Z,4.78
2023-01-07T05:37:40.629Z,4.97
2023-01-07T05:40:12.231Z,5.80
2023-01-07T05:42:41.015Z,6.20
2023-01-07T05:45:10.121Z,5.13
2023-01-07T05:47:40.332Z,4.85
2023-01-07T05:50:09.333Z,4.88
2023-01-07T05:52:38.690Z,4.05
2023-01-07T05:55:08.936Z,4.40
2023-01-07T05:57:37.718Z,4.57
2023-01-07T06:00:07.409Z,4.00
2023-01-07T06:02:42.053Z,4.43
2023-01-07T06:05:11.192Z,4.18
2023-01-07T06:07:39.975Z,4.18
2023-01-07T06:10:09.322Z,4.30
2023-01-07T06:12:37.738Z,3.75
2023-01-07T06:15:08.174Z,4.30
2023-01-07T06:17:36.606Z,3.97
2023-01-07T06:20:09.440Z,4.22
2023-01-07T06:22:37.812Z,3.75
2023-01-07T06:25:07.019Z,4.35
2023-01-07T06:27:35.810Z,11.32
2023-01-07T06:30:05.286Z,13.90
2023-01-07T06:32:38.701Z,14.90
2023-01-07T06:35:11.603Z,14.75
2023-01-07T06:37:40.309Z,15.25
2023-01-07T07:21:54.849Z,5.15
2023-01-07T07:24:53.002Z,5.72
2023-01-07T07:27:22.246Z,5.50
2023-01-07T07:30:47.359Z,5.63
2023-01-07T07:34:50.667Z,5.55
2023-01-07T07:41:17.688Z,5.05
2023-01-07T07:43:46.055Z,5.97
2023-01-07T07:46:15.431Z,6.05
2023-01-07T07:48:44.000Z,5.77
2023-01-07T07:51:13.750Z,5.67
2023-01-07T07:58:58.723Z,5.97
2023-01-07T08:14:43.859Z,6.35
2023-01-07T08:17:27.431Z,6.80
2023-01-07T08:43:30.170Z,6.53
2023-01-07T08:46:38.801Z,5.38
2023-01-07T08:49:07.347Z,6.07
2023-01-07T08:51:36.411Z,6.70
2023-01-07T08:54:05.150Z,5.97
2023-01-07T08:56:34.596Z,7.13
2023-01-07T08:59:04.615Z,8.23
2023-01-07T09:01:33.282Z,6.25
2023-01-07T09:04:02.980Z,6.30
2023-01-07T09:06:31.833Z,5.70
2023-01-07T09:09:00.189Z,6.70
2023-01-07T09:11:29.522Z,5.40
2023-01-07T09:13:57.894Z,5.68
2023-01-07T09:16:27.673Z,4.72
2023-01-07T09:18:56.067Z,6.32
2023-01-07T09:21:24.912Z,4.70
2023-01-07T09:23:53.275Z,5.47
2023-01-07T09:26:21.619Z,5.00
2023-01-07T09:28:50.671Z,4.90
2023-01-07T09:31:19.145Z,4.95
2023-01-07T09:33:49.763Z,4.88
2023-01-07T09:36:18.278Z,6.80
2023-01-07T09:38:47.102Z,4.63
2023-01-07T09:41:29.040Z,4.43
2023-01-07T09:44:06.380Z,4.50
2023-01-07T09:46:35.650Z,3.60
2023-01-07T09:49:08.054Z,2.92
2023-01-07T09:51:41.841Z,3.28
2023-01-07T09:54:20.667Z,3.47
2023-01-07T09:56:49.338Z,3.70
2023-01-07T09:59:20.387Z,3.95
2023-01-07T10:01:54.890Z,3.40
2023-01-07T10:04:37.620Z,3.92
2023-01-07T10:07:21.755Z,2.83
2023-01-07T10:10:07.757Z,2.45
2023-01-07T10:12:44.271Z,2.13
2023-01-07T10:15:24.108Z,2.35
2023-01-07T10:18:07.463Z,1.90
2023-01-07T10:20:45.958Z,2.30
2023-01-07T10:23:17.229Z,2.60
2023-01-07T10:25:49.022Z,2.05
2023-01-07T10:28:23.581Z,2.45
2023-01-07T10:30:53.018Z,3.35
2023-01-07T10:33:25.218Z,2.53
2023-01-07T10:36:02.752Z,2.85
2023-01-07T10:38:35.768Z,2.90
2023-01-07T10:41:10.391Z,2.80
2023-01-07T10:43:57.300Z,3.17
2023-01-07T10:46:43.582Z,5.57
2023-01-07T10:49:25.327Z,3.58
2023-01-07T10:52:15.207Z,8.02
2023-01-07T10:54:57.486Z,4.25
2023-01-07T10:57:29.723Z,3.60
2023-01-07T11:00:02.567Z,3.17
2023-01-07T11:02:31.641Z,3.88
2023-01-07T11:05:02.060Z,3.53
2023-01-07T11:07:40.407Z,3.60
2023-01-07T11:10:14.295Z,3.97
2023-01-07T11:12:47.863Z,5.07
2023-01-07T11:15:20.282Z,3.80
2023-01-07T11:17:54.016Z,3.50
2023-01-07T11:20:48.383Z,4.55
2023-01-07T11:23:30.399Z,3.88
2023-01-07T11:26:24.120Z,4.05
2023-01-07T11:28:56.443Z,4.20
2023-01-07T11:31:45.213Z,3.30
2023-01-07T11:34:21.569Z,3.85
2023-01-07T11:36:49.989Z,3.78
2023-01-07T11:39:22.903Z,3.75
2023-01-07T11:41:56.633Z,3.83
2023-01-07T11:44:25.367Z,3.40
2023-01-07T11:46:56.751Z,3.65
2023-01-07T11:49:31.839Z,3.40
2023-01-07T11:52:03.634Z,3.05
2023-01-07T11:54:33.763Z,3.55
2023-01-07T11:57:15.356Z,3.20
2023-01-07T11:59:43.774Z,3.08
2023-01-07T12:02:26.139Z,3.08
2023-01-07T12:05:18.682Z,3.15
2023-01-07T12:07:48.730Z,2.78
2023-01-07T12:10:29.976Z,2.72
2023-01-07T12:13:00.386Z,3.20
2023-01-07T12:15:31.736Z,2.67
2023-01-07T12:18:35.517Z,3.33
2023-01-07T12:21:29.162Z,3.70
2023-01-07T12:24:16.338Z,3.10
2023-01-07T12:26:53.735Z,4.05
2023-01-07T12:29:36.261Z,3.17
2023-01-07T12:32:21.588Z,3.13
2023-01-07T12:34:56.909Z,3.00
2023-01-07T12:37:33.035Z,2.72
2023-01-07T12:40:19.195Z,3.17
2023-01-07T12:42:54.043Z,3.38
2023-01-07T12:45:29.451Z,2.80
2023-01-07T12:48:02.511Z,2.70
2023-01-07T12:50:37.959Z,3.20
2023-01-07T12:53:16.755Z,3.20
2023-01-07T12:55:49.509Z,2.90
2023-01-07T12:58:25.634Z,3.05
2023-01-07T13:01:01.790Z,3.10
2023-01-07T13:03:44.448Z,2.95
2023-01-07T13:06:20.241Z,3.95
2023-01-07T13:08:58.249Z,3.22
2023-01-07T13:11:50.743Z,3.25
2023-01-07T13:14:26.972Z,3.40
2023-01-07T13:17:02.617Z,3.22
2023-01-07T13:19:31.729Z,3.53
2023-01-07T13:22:00.457Z,3.67
2023-01-07T13:24:55.883Z,3.50
2023-01-07T13:27:38.943Z,3.25
2023-01-07T13:30:20.875Z,3.03
2023-01-07T13:33:06.537Z,2.85
2023-01-07T13:35:47.633Z,3.25
2023-01-07T13:38:50.122Z,3.47
2023-01-07T13:41:50.447Z,2.92
2023-01-07T13:44:51.246Z,2.90
2023-01-07T13:47:24.502Z,2.65
2023-01-07T13:49:59.223Z,3.08
2023-01-07T13:52:30.673Z,3.08
2023-01-07T13:55:02.498Z,3.00
2023-01-07T13:57:45.012Z,3.10
2023-01-07T14:00:48.692Z,3.35
2023-01-07T14:03:36.623Z,2.67
2023-01-07T14:06:44.560Z,2.60
2023-01-07T14:09:26.897Z,3.13
2023-01-07T14:12:29.294Z,3.03
2023-01-07T14:15:12.565Z,2.97
2023-01-07T14:17:55.697Z,2.80
2023-01-07T14:20:32.917Z,2.85
2023-01-07T14:23:09.581Z,2.95
2023-01-07T14:25:50.086Z,3.65
2023-01-07T14:28:44.165Z,3.30
2023-01-07T14:31:23.178Z,2.97
2023-01-07T14:33:58.053Z,3.17
2023-01-07T14:37:15.659Z,2.97
2023-01-07T14:39:45.299Z,2.83
2023-01-07T14:42:52.946Z,2.85
2023-01-07T14:45:53.380Z,2.50
2023-01-07T14:48:43.546Z,2.63
2023-01-07T14:51:44.287Z,2.60
2023-01-07T14:54:43.762Z,2.83
2023-01-07T14:57:30.199Z,2.45
2023-01-07T15:00:13.095Z,2.47
2023-01-07T15:03:03.914Z,2.65
2023-01-07T15:06:15.324Z,2.60
2023-01-07T15:09:08.650Z,4.72
2023-01-07T15:11:56.905Z,3.15
2023-01-07T15:14:48.930Z,5.35
2023-01-07T15:17:18.222Z,5.25
2023-01-07T15:19:47.926Z,4.00
2023-01-07T15:22:40.930Z,7.65
2023-01-07T15:25:24.441Z,3.90
2023-01-07T15:28:00.804Z,3.53
2023-01-07T15:30:41.169Z,3.03
2023-01-07T15:33:31.105Z,3.92
2023-01-07T15:36:00.196Z,3.75
2023-01-07T15:38:41.288Z,3.58
2023-01-07T15:41:25.955Z,5.25
2023-01-07T15:43:55.490Z,6.40
2023-01-07T15:46:26.566Z,7.75
2023-01-07T15:49:17.122Z,26.35
2023-01-07T15:51:48.998Z,14.65
2023-01-07T15:54:33.053Z,6.53
2023-01-07T15:57:08.340Z,4.43
2023-01-07T15:59:40.542Z,3.80
2023-01-07T16:02:27.777Z,3.95
2023-01-07T16:05:01.650Z,3.60
2023-01-07T16:07:32.915Z,4.65
2023-01-07T16:10:02.013Z,3.10
2023-01-07T16:12:35.067Z,3.25
2023-01-07T16:15:22.480Z,3.20
2023-01-07T16:17:52.314Z,4.35
2023-01-07T16:20:23.456Z,4.28
2023-01-07T16:22:53.471Z,7.00
2023-01-07T16:25:30.770Z,10.27
2023-01-07T16:28:01.090Z,11.27
2023-01-07T16:30:30.048Z,9.63
2023-01-07T16:32:59.111Z,7.05
2023-01-07T16:35:34.077Z,3.95
2023-01-07T16:38:04.304Z,3.63
2023-01-07T16:40:37.029Z,5.05
2023-01-07T16:43:42.292Z,4.32
2023-01-07T16:46:24.537Z,4.03
2023-01-07T16:49:23.341Z,6.15
2023-01-07T16:51:54.054Z,5.57
2023-01-07T16:54:34.991Z,4.80
2023-01-07T16:57:05.603Z,6.18
2023-01-07T16:59:38.469Z,4.88
2023-01-07T17:02:25.609Z,4.35
2023-01-07T17:04:55.804Z,3.78
2023-01-07T17:07:27.340Z,4.00
2023-01-07T17:10:00.623Z,3.85
2023-01-07T17:12:30.442Z,3.83
2023-01-07T17:15:00.743Z,4.43
2023-01-07T17:17:31.995Z,6.07
2023-01-07T17:20:16.075Z,4.15
2023-01-07T17:22:45.703Z,4.10
2023-01-07T17:25:17.168Z,4.13
2023-01-07T17:27:49.867Z,3.70
2023-01-07T17:30:22.895Z,3.55
2023-01-07T17:32:53.005Z,3.28
2023-01-07T17:35:24.407Z,3.55
2023-01-07T17:37:56.958Z,3.83
2023-01-07T17:40:25.965Z,2.60
2023-01-07T17:43:12.890Z,2.33
2023-01-07T17:45:43.033Z,3.92
2023-01-07T17:48:23.891Z,11.77
2023-01-07T17:56:05.726Z,7.50
2023-01-07T17:59:04.843Z,6.00
2023-01-07T18:02:35.067Z,7.55
2023-01-07T18:09:42.285Z,22.73
2023-01-07T18:17:05.866Z,14.13
2023-01-07T18:28:12.115Z,7.13
2023-01-07T18:31:24.531Z,7.60
2023-01-07T18:34:09.891Z,8.85
2023-01-07T18:37:12.899Z,10.73
2023-01-07T18:43:55.394Z,8.40
2023-01-07T18:47:21.251Z,9.23
2023-01-07T18:50:25.034Z,9.07
2023-01-07T18:53:04.081Z,14.43
2023-01-07T18:56:11.068Z,11.70
2023-01-07T18:59:18.827Z,10.77
2023-01-07T19:02:01.110Z,9.90
2023-01-07T19:04:43.917Z,9.07
2023-01-07T19:07:32.973Z,6.57
2023-01-07T19:10:09.395Z,8.57
2023-01-07T19:12:47.116Z,8.73
2023-01-07T19:15:22.344Z,9.47
2023-01-07T19:17:57.065Z,7.57
2023-01-07T19:20:30.713Z,6.70
2023-01-07T19:23:29.502Z,7.13
2023-01-07T19:26:24.232Z,9.17
2023-01-07T19:29:20.487Z,9.73
2023-01-07T19:32:01.539Z,12.90
2023-01-07T19:34:37.688Z,13.23
2023-01-07T19:37:21.881Z,14.00
2023-01-07T19:40:18.954Z,14.13
2023-01-07T19:42:51.819Z,13.03
2023-01-07T19:45:27.078Z,12.73
2023-01-07T19:47:59.541Z,12.57
2023-01-07T19:50:33.188Z,13.00
2023-01-07T19:53:01.867Z,13.57
2023-01-07T19:55:39.057Z,14.30
2023-01-07T19:58:15.548Z,13.13
2023-01-07T20:00:48.052Z,14.37
2023-01-07T20:03:21.114Z,14.57
2023-01-07T20:05:57.570Z,13.50
2023-01-07T20:08:35.013Z,12.07
2023-01-07T20:11:09.500Z,10.23
2023-01-07T20:14:19.991Z,12.13
2023-01-07T20:17:01.531Z,11.00
2023-01-07T20:19:43.288Z,12.30
2023-01-07T20:22:18.828Z,11.80
2023-01-07T20:24:50.304Z,12.00
2023-01-07T20:27:25.300Z,10.30
2023-01-07T20:30:08.348Z,11.27
2023-01-07T20:32:39.644Z,10.97
2023-01-07T20:35:11.833Z,9.73
2023-01-07T20:37:52.531Z,10.60
2023-01-07T20:40:33.057Z,10.33
2023-01-07T20:44:19.139Z,8.93
2023-01-07T20:46:59.123Z,9.70
2023-01-07T20:49:33.355Z,8.97
2023-01-07T20:52:05.204Z,9.73
2023-01-07T20:54:38.053Z,8.97
2023-01-07T20:57:18.670Z,9.53
2023-01-07T20:59:49.645Z,11.40
2023-01-07T21:02:23.578Z,11.73
2023-01-07T21:04:55.329Z,12.10
2023-01-07T21:07:25.817Z,10.27
2023-01-07T21:09:54.683Z,7.87
2023-01-07T21:12:23.975Z,7.13
2023-01-07T21:14:53.087Z,6.97
2023-01-07T21:17:24.783Z,7.40
2023-01-07T21:19:53.679Z,8.70
2023-01-07T21:22:26.186Z,10.80
2023-01-07T21:25:16.564Z,15.33
2023-01-07T21:27:47.202Z,14.40
2023-01-07T21:30:18.106Z,8.53
2023-01-07T21:33:22.584Z,7.37
2023-01-07T21:35:52.643Z,6.60
2023-01-07T21:38:21.892Z,8.20
2023-01-07T21:40:50.947Z,8.30
2023-01-07T21:43:20.286Z,8.10
2023-01-07T21:45:49.227Z,7.50
2023-01-07T21:48:18.241Z,7.70
2023-01-07T21:50:48.774Z,8.17
2023-01-07T21:53:19.897Z,7.07
2023-01-07T21:55:48.867Z,7.73
2023-01-07T21:58:17.889Z,6.93
2023-01-07T22:00:50.839Z,11.50
2023-01-07T22:03:19.846Z,12.37
2023-01-07T22:05:57.769Z,22.90
2023-01-07T22:08:28.741Z,20.57
2023-01-07T22:10:57.294Z,16.90
2023-01-07T22:13:26.886Z,17.83
2023-01-07T22:15:58.792Z,10.90
2023-01-07T22:18:28.662Z,7.17
2023-01-07T22:20:58.098Z,8.00
2023-01-07T22:27:00.265Z,8.23
2023-01-07T22:30:04.786Z,8.97
2023-01-07T22:32:49.615Z,9.10
2023-01-07T22:35:27.375Z,8.43
2023-01-07T22:38:18.106Z,8.67
2023-01-07T22:41:04.918Z,7.77
2023-01-07T22:43:47.581Z,6.93
2023-01-07T22:46:30.250Z,7.03
2023-01-07T22:49:11.037Z,7.47
2023-01-07T22:51:54.244Z,6.77
2023-01-07T22:54:46.171Z,8.00
2023-01-07T22:57:35.482Z,7.60
2023-01-07T23:00:50.059Z,9.00
2023-01-07T23:03:34.293Z,9.53
2023-01-07T23:06:43.543Z,10.57
2023-01-07T23:09:30.935Z,10.80
2023-01-07T23:12:12.602Z,8.90
2023-01-07T23:15:05.600Z,8.40
2023-01-07T23:18:09.717Z,9.83
2023-01-07T23:20:54.354Z,9.20
2023-01-07T23:23:37.618Z,10.27
2023-01-07T23:26:20.496Z,9.87
2023-01-07T23:29:12.261Z,9.03
2023-01-07T23:32:10.535Z,10.07
2023-01-07T23:34:53.820Z,11.77
2023-01-07T23:37:34.889Z,16.07
2023-01-07T23:40:14.748Z,11.20
2023-01-07T23:42:59.523Z,10.13
2023-01-07T23:45:41.119Z,7.87
2023-01-07T23:48:34.913Z,8.73
2023-01-07T23:51:18.741Z,9.47
2023-01-07T23:53:56.624Z,8.03
2023-01-07T23:57:18.882Z,8.53
